createdAt,value
2023-02-17T00:02:39.682Z,78.63
2023-02-17T00:05:40.272Z,78.62
2023-02-17T00:08:46.216Z,78.52
2023-02-17T00:11:47.480Z,78.51
2023-02-17T00:14:54.341Z,78.46
2023-02-17T00:17:55.288Z,78.74
2023-02-17T00:21:00.232Z,78.70
2023-02-17T00:24:03.854Z,78.70
2023-02-17T00:27:06.398Z,78.81
2023-02-17T00:30:09.540Z,79.03
2023-02-17T00:33:10.347Z,79.15
2023-02-17T00:36:11.302Z,79.37
2023-02-17T00:39:11.460Z,79.13
2023-02-17T00:42:11.272Z,79.34
2023-02-17T00:45:14.855Z,79.75
2023-02-17T00:48:16.320Z,80.13
2023-02-17T00:51:16.344Z,80.50
2023-02-17T00:54:18.339Z,80.90
2023-02-17T00:57:21.416Z,81.75
2023-02-17T01:00:23.324Z,81.69
2023-02-17T01:03:24.368Z,81.99
2023-02-17T01:06:34.354Z,82.20
2023-02-17T01:09:34.369Z,82.32
2023-02-17T01:12:36.393Z,82.21
2023-02-17T01:15:37.353Z,82.78
2023-02-17T01:18:41.374Z,83.15
2023-02-17T01:21:44.592Z,83.24
2023-02-17T01:24:44.493Z,83.59
2023-02-17T01:27:44.376Z,84.15
2023-02-17T01:30:45.483Z,84.44
2023-02-17T01:33:47.418Z,84.55
2023-02-17T01:36:48.562Z,84.66
2023-02-17T01:39:49.412Z,84.69
2023-02-17T01:42:50.428Z,84.72
2023-02-17T01:46:04.740Z,84.44
2023-02-17T01:49:05.469Z,84.57
2023-02-17T01:52:14.479Z,84.90
2023-02-17T01:55:21.457Z,84.67
2023-02-17T01:58:21.430Z,84.49
2023-02-17T02:01:21.952Z,84.37
2023-02-17T02:04:23.459Z,84.30
2023-02-17T02:07:30.486Z,83.90
2023-02-17T02:10:33.675Z,83.60
2023-02-17T02:13:35.468Z,83.37
2023-02-17T02:17:00.482Z,83.31
2023-02-17T02:20:11.065Z,83.12
2023-02-17T02:23:47.613Z,83.25
2023-02-17T02:27:02.487Z,83.36
2023-02-17T02:30:29.573Z,83.89
2023-02-17T02:33:41.695Z,84.00
2023-02-17T02:36:51.627Z,83.91
2023-02-17T02:39:53.760Z,83.92
2023-02-17T02:42:55.500Z,84.05
2023-02-17T02:45:57.668Z,83.91
2023-02-17T02:48:57.493Z,84.27
2023-02-17T02:52:02.542Z,84.06
2023-02-17T02:55:27.515Z,84.26
2023-02-17T02:58:42.546Z,84.21
2023-02-17T03:02:29.575Z,84.27
2023-02-17T03:05:47.783Z,84.69
2023-02-17T03:08:50.581Z,84.63
2023-02-17T03:11:52.542Z,84.62
2023-02-17T03:14:58.818Z,84.43
2023-02-17T03:17:58.609Z,84.40
2023-02-17T03:21:05.260Z,84.57
2023-02-17T03:24:08.692Z,84.72
2023-02-17T03:27:11.574Z,84.54
2023-02-17T03:30:12.578Z,84.67
2023-02-17T03:33:12.566Z,84.64
2023-02-17T03:36:12.569Z,84.94
2023-02-17T03:39:16.608Z,85.18
2023-02-17T03:42:16.695Z,85.55
2023-02-17T03:45:17.609Z,85.27
2023-02-17T03:48:24.898Z,85.25
2023-02-17T03:51:27.675Z,85.49
2023-02-17T03:54:29.651Z,85.36
2023-02-17T03:57:29.692Z,85.85
2023-02-17T04:00:29.712Z,85.60
2023-02-17T04:03:32.738Z,85.67
2023-02-17T04:06:33.711Z,85.76
2023-02-17T04:09:37.858Z,86.16
2023-02-17T04:12:39.078Z,86.52
2023-02-17T04:15:41.728Z,86.26
2023-02-17T04:18:42.776Z,86.64
2023-02-17T04:21:43.717Z,86.96
2023-02-17T04:24:44.720Z,87.17
2023-02-17T04:27:44.690Z,87.55
2023-02-17T04:30:45.771Z,87.78
2023-02-17T04:33:53.202Z,87.81
2023-02-17T04:36:53.780Z,88.16
2023-02-17T04:39:54.913Z,88.35
2023-02-17T04:42:55.798Z,88.72
2023-02-17T04:45:58.760Z,88.91
2023-02-17T04:49:01.673Z,88.73
2023-02-17T04:52:01.760Z,88.99
2023-02-17T04:55:02.716Z,89.37
2023-02-17T04:58:02.756Z,89.83
2023-02-17T05:01:04.779Z,89.89
2023-02-17T05:04:04.726Z,90.11
2023-02-17T05:07:06.799Z,90.70
2023-02-17T05:10:13.758Z,91.06
2023-02-17T05:13:17.820Z,91.44
2023-02-17T05:16:24.787Z,91.94
2023-02-17T05:19:24.770Z,91.85
2023-02-17T05:22:25.777Z,91.93
2023-02-17T05:25:26.789Z,92.34
2023-02-17T05:28:29.297Z,92.79
2023-02-17T05:31:31.895Z,92.96
2023-02-17T05:34:33.319Z,92.99
2023-02-17T05:37:35.789Z,93.40
2023-02-17T05:40:39.270Z,93.55
2023-02-17T05:43:41.846Z,93.36
2023-02-17T05:46:45.120Z,93.82
2023-02-17T05:49:44.999Z,94.05
2023-02-17T05:52:51.767Z,94.46
2023-02-17T05:55:53.866Z,94.67
2023-02-17T05:58:53.817Z,95.07
2023-02-17T06:01:57.912Z,95.59
2023-02-17T06:05:00.993Z,96.63
2023-02-17T06:08:04.822Z,97.13
2023-02-17T06:11:08.204Z,97.32
2023-02-17T06:14:07.848Z,97.29
2023-02-17T06:17:12.180Z,97.42
2023-02-17T06:20:17.904Z,97.47
2023-02-17T06:23:17.910Z,97.46
2023-02-17T06:26:21.942Z,97.57
2023-02-17T06:29:24.914Z,97.63
2023-02-17T06:32:26.111Z,97.67
2023-02-17T06:35:28.366Z,97.45
2023-02-17T06:38:30.269Z,97.75
2023-02-17T06:41:31.387Z,98.37
2023-02-17T06:44:37.092Z,98.33
2023-02-17T06:47:38.917Z,98.07
2023-02-17T06:50:39.953Z,97.86
2023-02-17T06:53:41.979Z,98.29
2023-02-17T06:56:45.768Z,98.60
2023-02-17T06:59:49.362Z,98.82
2023-02-17T07:02:52.190Z,99.01
2023-02-17T07:05:54.150Z,98.86
2023-02-17T07:08:55.077Z,98.72
2023-02-17T07:11:56.940Z,98.31
2023-02-17T07:14:59.317Z,98.35
2023-02-17T07:18:01.217Z,98.36
2023-02-17T07:21:03.024Z,98.10
2023-02-17T07:24:02.993Z,97.95
2023-02-17T07:27:04.003Z,97.91
2023-02-17T07:30:03.998Z,97.61
2023-02-17T07:33:06.892Z,97.56
2023-02-17T07:36:09.038Z,97.15
2023-02-17T07:39:09.024Z,97.32
2023-02-17T07:42:11.015Z,97.39
2023-02-17T07:45:15.034Z,96.94
2023-02-17T07:48:16.089Z,96.56
2023-02-17T07:51:20.016Z,96.06
2023-02-17T07:54:22.098Z,95.49
2023-02-17T07:57:26.242Z,95.12
2023-02-17T08:00:30.444Z,95.00
2023-02-17T08:03:31.049Z,94.76
2023-02-17T08:06:36.229Z,94.43
2023-02-17T08:09:56.066Z,93.92
2023-02-17T08:13:15.095Z,94.20
2023-02-17T08:19:47.544Z,93.51
2023-02-17T08:22:51.088Z,93.34
2023-02-17T08:26:12.252Z,92.87
2023-02-17T08:29:25.809Z,92.72
2023-02-17T08:32:28.157Z,92.30
2023-02-17T08:35:36.631Z,91.78
2023-02-17T08:38:46.308Z,91.86
2023-02-17T08:41:52.193Z,91.93
2023-02-17T08:45:01.462Z,92.09
2023-02-17T08:48:10.346Z,92.00
2023-02-17T08:51:13.320Z,91.26
2023-02-17T08:54:16.288Z,91.15
2023-02-17T08:57:21.448Z,90.29
2023-02-17T09:00:27.735Z,90.79
2023-02-17T09:03:33.202Z,91.01
2023-02-17T09:06:34.157Z,91.42
2023-02-17T09:09:37.292Z,91.64
2023-02-17T09:12:42.776Z,91.89
2023-02-17T09:15:44.257Z,91.80
2023-02-17T09:18:47.167Z,91.52
2023-02-17T09:21:48.744Z,90.92
2023-02-17T09:24:52.251Z,90.92
2023-02-17T09:27:55.767Z,90.45
2023-02-17T09:31:05.406Z,90.21
2023-02-17T09:34:12.874Z,89.87
2023-02-17T09:37:14.209Z,89.83
2023-02-17T09:40:18.189Z,89.80
2023-02-17T09:43:31.767Z,89.45
2023-02-17T09:46:37.295Z,88.90
2023-02-17T09:49:41.305Z,88.70
2023-02-17T09:53:11.336Z,88.35
2023-02-17T09:56:12.269Z,87.88
2023-02-17T09:59:50.273Z,87.57
2023-02-17T10:03:04.324Z,87.04
2023-02-17T10:06:22.278Z,86.34
2023-02-17T10:09:56.327Z,85.74
2023-02-17T10:13:04.453Z,85.50
2023-02-17T10:16:09.474Z,84.83
2023-02-17T10:19:13.272Z,84.41
2023-02-17T10:22:32.284Z,84.87
2023-02-17T10:25:52.414Z,84.83
2023-02-17T10:29:10.420Z,84.68
2023-02-17T10:32:34.813Z,84.51
2023-02-17T10:35:56.425Z,83.94
2023-02-17T10:39:05.292Z,84.10
2023-02-17T10:42:05.290Z,83.80
2023-02-17T10:45:13.360Z,83.71
2023-02-17T10:48:20.301Z,83.66
2023-02-17T10:51:26.311Z,84.13
2023-02-17T10:54:35.339Z,83.87
2023-02-17T10:57:38.593Z,84.03
2023-02-17T11:00:40.365Z,83.73
2023-02-17T11:03:44.377Z,83.50
2023-02-17T11:06:44.320Z,83.26
2023-02-17T11:09:47.395Z,83.00
2023-02-17T11:12:52.605Z,82.91
2023-02-17T11:15:59.835Z,82.48
2023-02-17T11:19:02.381Z,82.28
2023-02-17T11:22:05.568Z,82.12
2023-02-17T11:25:15.634Z,81.88
2023-02-17T11:28:23.838Z,81.74
2023-02-17T11:31:42.712Z,81.76
2023-02-17T11:34:43.440Z,81.69
2023-02-17T11:37:43.486Z,81.94
2023-02-17T11:40:47.394Z,82.07
2023-02-17T11:44:11.448Z,82.29
2023-02-17T11:47:16.828Z,81.88
2023-02-17T11:50:50.467Z,81.91
2023-02-17T11:54:00.437Z,82.27
2023-02-17T11:57:44.381Z,82.44
2023-02-17T12:01:23.529Z,82.07
2023-02-17T12:04:39.525Z,81.74
2023-02-17T12:08:18.462Z,81.75
2023-02-17T12:11:32.412Z,81.33
2023-02-17T12:15:01.546Z,81.48
2023-02-17T12:18:46.237Z,82.00
2023-02-17T12:22:07.516Z,82.18
2023-02-17T12:25:24.480Z,82.10
2023-02-17T12:28:39.593Z,81.96
2023-02-17T12:32:02.668Z,82.20
2023-02-17T12:35:10.639Z,82.04
2023-02-17T12:38:16.702Z,82.29
2023-02-17T12:41:19.527Z,82.39
2023-02-17T12:44:25.702Z,82.69
2023-02-17T12:47:35.733Z,82.55
2023-02-17T12:50:55.499Z,82.41
2023-02-17T12:54:13.057Z,82.22
2023-02-17T12:57:26.585Z,82.22
2023-02-17T13:00:39.771Z,81.98
2023-02-17T13:03:47.887Z,81.89
2023-02-17T13:06:51.557Z,81.85
2023-02-17T13:09:59.601Z,81.79
2023-02-17T13:13:09.758Z,81.89
2023-02-17T13:16:25.564Z,81.87
2023-02-17T13:19:28.019Z,81.84
2023-02-17T13:22:35.675Z,81.96
2023-02-17T13:25:45.564Z,82.29
2023-02-17T13:28:53.131Z,82.21
2023-02-17T13:32:02.719Z,82.35
2023-02-17T13:35:13.759Z,82.72
2023-02-17T13:38:15.683Z,82.92
2023-02-17T13:41:18.577Z,83.02
2023-02-17T13:44:39.724Z,83.24
2023-02-17T13:47:49.700Z,83.40
2023-02-17T13:50:57.708Z,83.56
2023-02-17T13:54:02.689Z,83.84
2023-02-17T13:57:08.147Z,83.65
2023-02-17T14:00:41.671Z,83.75
2023-02-17T14:03:56.654Z,84.09
2023-02-17T14:06:56.875Z,84.02
2023-02-17T14:10:06.399Z,83.99
2023-02-17T14:13:07.732Z,84.08
2023-02-17T14:16:10.965Z,84.29
2023-02-17T14:19:19.510Z,84.34
2023-02-17T14:22:21.756Z,84.77
2023-02-17T14:25:26.257Z,84.60
2023-02-17T14:28:36.907Z,85.00
2023-02-17T14:31:41.148Z,85.40
2023-02-17T14:34:44.917Z,85.88
2023-02-17T14:37:45.914Z,86.47
2023-02-17T14:40:46.672Z,86.69
2023-02-17T14:43:48.691Z,86.97
2023-02-17T14:46:48.799Z,87.42
2023-02-17T14:49:49.755Z,87.86
2023-02-17T14:52:59.741Z,88.28
2023-02-17T14:56:25.714Z,88.70
2023-02-17T14:59:25.724Z,89.13
2023-02-17T15:02:32.142Z,89.46
2023-02-17T15:05:37.795Z,89.73
2023-02-17T15:08:46.411Z,89.97
2023-02-17T15:11:51.884Z,90.18
2023-02-17T15:14:56.835Z,90.18
2023-02-17T15:18:10.279Z,90.50
2023-02-17T15:21:14.006Z,91.06
2023-02-17T15:24:38.829Z,91.02
2023-02-17T15:27:43.101Z,91.16
2023-02-17T15:30:47.245Z,91.26
2023-02-17T15:33:48.823Z,91.41
2023-02-17T15:36:52.417Z,91.95
2023-02-17T15:39:59.397Z,92.08
2023-02-17T15:43:15.819Z,92.68
2023-02-17T15:46:30.081Z,92.84
2023-02-17T15:49:33.851Z,93.54
2023-02-17T15:52:37.873Z,94.60
2023-02-17T15:55:43.827Z,95.47
2023-02-17T15:58:47.379Z,96.17
2023-02-17T16:01:52.193Z,97.59
2023-02-17T16:04:54.999Z,98.21
2023-02-17T16:07:59.806Z,99.23
2023-02-17T16:11:05.410Z,99.86
2023-02-17T16:14:11.009Z,100.00
2023-02-17T16:17:14.422Z,100.00
2023-02-17T16:20:26.285Z,100.00
2023-02-17T16:23:33.104Z,100.00
2023-02-17T16:26:47.029Z,100.00
2023-02-17T16:29:48.074Z,100.00
2023-02-17T16:32:56.917Z,100.00
2023-02-17T16:36:14.121Z,100.00
2023-02-17T16:39:29.941Z,100.00
2023-02-17T16:42:36.505Z,100.00
2023-02-17T16:45:44.223Z,100.00
2023-02-17T16:48:48.972Z,100.00
2023-02-17T16:51:52.486Z,100.00
2023-02-17T16:55:01.927Z,100.00
2023-02-17T16:58:07.016Z,100.00
2023-02-17T17:01:12.523Z,100.00
2023-02-17T17:04:17.109Z,100.00
2023-02-17T17:07:20.279Z,100.00
2023-02-17T17:10:24.978Z,100.00
2023-02-17T17:13:29.575Z,100.00
2023-02-17T17:16:39.325Z,100.00
2023-02-17T17:19:43.032Z,100.00
2023-02-17T17:22:45.224Z,100.00
2023-02-17T17:25:57.216Z,100.00
2023-02-17T17:29:00.042Z,100.00
2023-02-17T17:32:02.270Z,100.00
2023-02-17T17:35:07.502Z,100.00
2023-02-17T17:38:08.455Z,100.00
2023-02-17T17:41:17.227Z,100.00
2023-02-17T17:44:17.985Z,100.00
2023-02-17T17:47:29.432Z,100.00
2023-02-17T17:50:37.086Z,100.00
2023-02-17T17:53:41.849Z,100.00
2023-02-17T17:56:52.980Z,100.00
2023-02-17T17:59:55.269Z,100.00
2023-02-17T18:02:58.225Z,100.00
2023-02-17T18:06:10.755Z,100.00
2023-02-17T18:09:31.778Z,100.00
2023-02-17T18:12:33.175Z,100.00
2023-02-17T18:15:38.122Z,100.00
2023-02-17T18:18:39.164Z,100.00
2023-02-17T18:21:41.912Z,100.00
2023-02-17T18:24:43.180Z,100.00
2023-02-17T18:28:03.622Z,100.00
2023-02-17T18:31:14.211Z,100.00
2023-02-17T18:34:15.311Z,100.00
2023-02-17T18:37:17.084Z,100.00
2023-02-17T18:40:21.159Z,100.00
2023-02-17T18:43:23.281Z,100.00
2023-02-17T18:46:26.756Z,100.00
2023-02-17T18:49:25.127Z,100.00
2023-02-17T18:52:28.544Z,100.00
2023-02-17T18:55:43.393Z,100.00
2023-02-17T18:58:45.156Z,100.00
2023-02-17T19:01:59.268Z,100.00
2023-02-17T19:05:14.287Z,100.00
2023-02-17T19:08:34.733Z,100.00
2023-02-17T19:11:42.223Z,100.00
2023-02-17T19:15:04.172Z,100.00
2023-02-17T19:18:36.857Z,100.00
2023-02-17T19:25:52.357Z,100.00
2023-02-17T19:29:21.001Z,100.00
2023-02-17T19:32:53.816Z,100.00
2023-02-17T19:39:40.979Z,100.00
2023-02-17T19:54:19.481Z,100.00
2023-02-17T19:57:49.497Z,100.00
2023-02-17T20:01:58.924Z,100.00
2023-02-17T20:06:01.606Z,100.00
2023-02-17T20:09:47.950Z,100.00
2023-02-17T20:13:08.715Z,100.00
2023-02-17T20:24:02.461Z,100.00
2023-02-17T20:31:24.660Z,100.00
2023-02-17T20:35:00.741Z,100.00
2023-02-17T20:38:18.978Z,100.00
2023-02-17T20:41:52.297Z,100.00
2023-02-17T20:44:59.442Z,100.00
2023-02-17T20:48:21.369Z,100.00
2023-02-17T20:51:34.133Z,100.00
2023-02-17T20:54:52.206Z,100.00
2023-02-17T20:58:06.692Z,100.00
2023-02-17T21:01:32.933Z,100.00
2023-02-17T21:08:05.227Z,100.00
2023-02-17T21:11:15.536Z,100.00
2023-02-17T21:14:22.827Z,100.00
2023-02-17T21:17:40.465Z,100.00
2023-02-17T21:20:46.576Z,100.00
2023-02-17T21:24:05.783Z,100.00
2023-02-17T21:27:14.788Z,100.00
2023-02-17T21:30:37.601Z,100.00
2023-02-17T21:33:41.680Z,100.00
2023-02-17T21:36:57.840Z,100.00
2023-02-17T21:40:26.355Z,100.00
2023-02-17T21:43:52.646Z,100.00
2023-02-17T21:46:57.471Z,100.00
2023-02-17T21:50:05.729Z,100.00
2023-02-17T21:56:46.200Z,100.00
2023-02-17T21:59:50.404Z,100.00
2023-02-17T22:03:13.392Z,100.00
2023-02-17T22:09:57.792Z,100.00
2023-02-17T22:13:10.177Z,100.00
2023-02-17T22:16:19.593Z,100.00
2023-02-17T22:19:33.463Z,100.00
2023-02-17T22:26:56.802Z,100.00
2023-02-17T22:30:27.894Z,100.00
2023-02-17T22:33:32.470Z,100.00
2023-02-17T22:36:36.533Z,100.00
2023-02-17T22:39:39.748Z,100.00
2023-02-17T22:42:52.575Z,100.00
2023-02-17T22:47:05.088Z,100.00
2023-02-17T22:50:09.096Z,100.00
2023-02-17T22:53:15.853Z,100.00
2023-02-17T22:56:21.341Z,100.00
2023-02-17T22:59:25.125Z,100.00
2023-02-17T23:02:32.313Z,100.00
2023-02-17T23:05:43.106Z,100.00
2023-02-17T23:08:50.597Z,100.00
2023-02-17T23:12:00.655Z,100.00
2023-02-17T23:15:12.935Z,100.00
2023-02-17T23:18:15.220Z,100.00
2023-02-17T23:21:24.342Z,100.00
2023-02-17T23:24:29.404Z,100.00
2023-02-17T23:27:36.411Z,100.00
2023-02-17T23:30:39.851Z,100.00
2023-02-17T23:33:43.249Z,100.00
2023-02-17T23:36:51.891Z,100.00
2023-02-17T23:40:00.196Z,100.00
2023-02-17T23:43:12.407Z,100.00
2023-02-17T23:46:13.499Z,100.00
2023-02-17T23:49:16.411Z,100.00
2023-02-17T23:52:21.990Z,100.00
2023-02-17T23:55:28.429Z,100.00
2023-02-17T23:58:34.763Z,100.00
